Brushton, NY (12916)

9:53 PM EST on January 25, 2015 (GMT -0500)
Perry Hill | Change Station
CLOSE
Current Station
Personal Weather Station
Location: North Bangor, NY
Elevation: 1053 ft
Nearby Weather Stations

Elev 1053 ft 44.83 °N, 74.38 °W | Updated 4 minutes ago

Partly Cloudy
Partly Cloudy
0.1 °F
Feels Like -13 °F
N
6.8
Wind Variable Wind from West

Today
High -- | Low -- °F
--% Chance of Precip.
Yesterday
High -- | Low -- °F
Precip. -- in
7:24 AM 4:56 PM
Waxing Crescent, 38% visible
Pressure 30.16 in
Visibility 10.0 miles
Clouds Clear
Windchill -13 °F
Dew Point -6 °F
Humidity 75%
Rainfall 0.00 in
Snow Depth Not available.
UV 0 out of 12
Pollen .10 out of 12
Air Quality Not available.
Flu Activity Not available.
METAR KMSS 260153Z AUTO 29005KT 10SM CLR M15/M21 A3013 RMK AO2 SLP213 T11501211

More Conditions Fewer Conditions

Pressure 30.16 in
Visibility 10.0 miles
Clouds Clear
Windchill -13 °F
Dew Point -6 °F
Humidity 75%
Rainfall 0.00 in
Snow Depth Not available.
UV 0 out of 12
Pollen .10 out of 12
Air Quality Not available.
Flu Activity Not available.
METAR KMSS 260153Z AUTO 29005KT 10SM CLR M15/M21 A3013 RMK AO2 SLP213 T11501211

More Conditions Fewer Conditions

10-Day Weather Forecast

Almanac

Astronomy

Jan. 25, 2015 Rise Set
Actual Time
Civil Twilight
Nautical Twilight
Astronomical Twilight
Moon
Length of Visible Light
Length of Day
Tomorrow will be .
, % of the Moon is Illuminated

Today's Extremes

State Highs State Lows

Community

WunderPhotos

Upload Photos

1,790,085 photos uploaded!

WunderBlogs® & News

Nearby

Air Quality

  Air Quality AQ Index Pollutant
Not available.

Snow Depth

Station Depth Elevation

Earthquake Activity

City Distance Mag. Time & Date
Minimum magnitude displayed is 2.5.

Coastal Water Temperatures

Place Temperature

Nearby Weather Stations